createdAt,value
2018-05-15T00:02:00.539Z,4.10
2018-05-15T00:04:27.926Z,4.83
2018-05-15T00:06:55.322Z,4.47
2018-05-15T00:09:22.833Z,4.60
2018-05-15T00:11:50.290Z,5.30
2018-05-15T00:14:17.734Z,4.33
2018-05-15T00:16:45.189Z,4.20
2018-05-15T00:19:12.572Z,4.70
2018-05-15T00:21:39.976Z,4.27
2018-05-15T00:24:07.391Z,4.50
2018-05-15T00:26:34.823Z,4.80
2018-05-15T00:29:02.265Z,4.93
2018-05-15T00:31:29.676Z,4.97
2018-05-15T00:33:57.123Z,3.90
2018-05-15T00:36:24.526Z,5.20
2018-05-15T00:38:51.984Z,4.53
2018-05-15T00:41:19.441Z,4.10
2018-05-15T00:43:46.839Z,5.90
2018-05-15T00:46:14.281Z,5.70
2018-05-15T00:48:41.663Z,5.60
2018-05-15T00:51:09.088Z,4.80
2018-05-15T00:53:36.490Z,4.70
2018-05-15T00:56:03.991Z,4.90
2018-05-15T00:58:31.372Z,5.20
2018-05-15T01:00:58.777Z,5.90
2018-05-15T01:03:26.968Z,5.47
2018-05-15T01:05:54.457Z,4.70
2018-05-15T01:08:21.857Z,5.20
2018-05-15T01:10:49.252Z,5.10
2018-05-15T01:13:16.647Z,5.57
2018-05-15T01:15:44.154Z,6.30
2018-05-15T01:18:11.573Z,5.57
2018-05-15T01:20:38.983Z,5.60
2018-05-15T01:23:06.382Z,6.53
2018-05-15T01:25:33.783Z,5.87
2018-05-15T01:28:01.233Z,5.70
2018-05-15T01:30:28.705Z,5.00
2018-05-15T01:32:56.106Z,6.17
2018-05-15T01:35:23.595Z,6.13
2018-05-15T01:37:51.043Z,5.70
2018-05-15T01:40:18.429Z,5.93
2018-05-15T01:42:45.871Z,6.00
2018-05-15T01:45:13.269Z,6.30
2018-05-15T01:47:40.662Z,5.50
2018-05-15T01:50:08.137Z,5.80
2018-05-15T01:52:35.537Z,6.43
2018-05-15T01:55:02.934Z,5.63
2018-05-15T01:57:30.341Z,6.50
2018-05-15T01:59:57.747Z,6.03
2018-05-15T02:02:25.233Z,6.20
2018-05-15T02:04:52.672Z,5.87
2018-05-15T02:07:20.124Z,6.93
2018-05-15T02:09:47.590Z,6.33
2018-05-15T02:12:15.048Z,5.87
2018-05-15T02:14:42.525Z,6.20
2018-05-15T02:17:09.961Z,6.83
2018-05-15T02:19:37.361Z,6.77
2018-05-15T02:22:04.769Z,7.17
2018-05-15T02:24:32.232Z,6.63
2018-05-15T02:26:59.702Z,7.50
2018-05-15T02:29:27.138Z,6.30
2018-05-15T02:31:54.537Z,6.70
2018-05-15T02:34:21.941Z,6.90
2018-05-15T02:36:49.410Z,6.47
2018-05-15T02:39:16.866Z,7.20
2018-05-15T02:41:44.340Z,6.20
2018-05-15T02:44:11.738Z,7.07
2018-05-15T02:46:39.146Z,7.47
2018-05-15T02:49:06.532Z,6.97
2018-05-15T02:51:33.949Z,7.97
2018-05-15T02:54:01.337Z,8.17
2018-05-15T02:56:28.763Z,7.50
2018-05-15T02:58:56.161Z,7.40
2018-05-15T03:01:23.567Z,7.23
2018-05-15T03:03:50.957Z,7.57
2018-05-15T03:06:18.358Z,7.70
2018-05-15T03:08:45.838Z,7.90
2018-05-15T03:11:13.233Z,8.00
2018-05-15T03:13:40.627Z,7.30
2018-05-15T03:16:08.021Z,8.10
2018-05-15T03:18:35.418Z,7.30
2018-05-15T03:21:02.865Z,8.03
2018-05-15T03:23:30.276Z,7.77
2018-05-15T03:25:57.741Z,9.07
2018-05-15T03:28:25.200Z,8.23
2018-05-15T03:30:52.597Z,8.93
2018-05-15T03:33:19.997Z,8.20
2018-05-15T03:35:47.409Z,9.37
2018-05-15T03:38:14.837Z,10.17
2018-05-15T03:40:42.292Z,8.93
2018-05-15T03:43:09.679Z,8.00
2018-05-15T03:45:37.094Z,7.93
2018-05-15T03:48:04.549Z,8.67
2018-05-15T03:50:31.945Z,9.03
2018-05-15T03:52:59.370Z,9.03
2018-05-15T03:55:26.858Z,8.80
2018-05-15T03:57:54.261Z,8.80
2018-05-15T04:00:33.557Z,8.87
2018-05-15T04:03:12.730Z,9.20
2018-05-15T04:05:51.889Z,8.57
2018-05-15T04:08:19.354Z,9.03
2018-05-15T04:10:46.878Z,9.30
2018-05-15T04:13:14.233Z,9.10
2018-05-15T04:15:41.650Z,9.10
2018-05-15T04:18:09.860Z,8.67
2018-05-15T04:20:37.265Z,9.53
2018-05-15T04:23:04.672Z,9.10
2018-05-15T04:25:32.073Z,8.93
2018-05-15T04:27:59.513Z,9.70
2018-05-15T04:30:26.889Z,9.10
2018-05-15T04:32:54.310Z,9.10
2018-05-15T04:35:21.859Z,9.33
2018-05-15T04:37:49.239Z,9.70
2018-05-15T04:40:16.635Z,9.40
2018-05-15T04:42:44.124Z,10.67
2018-05-15T04:45:11.553Z,8.83
2018-05-15T04:47:38.960Z,8.80
2018-05-15T04:50:06.440Z,8.47
2018-05-15T04:52:33.838Z,9.23
2018-05-15T04:55:01.235Z,10.10
2018-05-15T04:57:28.643Z,9.80
2018-05-15T04:59:56.033Z,9.60
2018-05-15T05:02:23.481Z,8.97
2018-05-15T05:04:50.891Z,8.97
2018-05-15T05:07:18.277Z,9.40
2018-05-15T05:09:45.717Z,8.43
2018-05-15T05:12:13.113Z,8.50
2018-05-15T05:14:40.510Z,8.40
2018-05-15T05:17:07.902Z,8.90
2018-05-15T05:19:35.301Z,7.53
2018-05-15T05:22:02.813Z,7.53
2018-05-15T05:24:30.232Z,8.63
2018-05-15T05:26:57.722Z,8.33
2018-05-15T05:29:25.136Z,8.20
2018-05-15T05:31:52.522Z,8.17
2018-05-15T05:34:19.984Z,7.90
2018-05-15T05:36:47.369Z,7.93
2018-05-15T05:39:14.818Z,6.63
2018-05-15T05:41:42.213Z,7.43
2018-05-15T05:44:09.727Z,6.63
2018-05-15T05:46:37.104Z,7.27
2018-05-15T05:49:04.516Z,6.77
2018-05-15T05:51:31.980Z,7.00
2018-05-15T05:53:59.389Z,5.87
2018-05-15T05:56:26.773Z,5.77
2018-05-15T05:58:54.197Z,5.80
2018-05-15T06:01:21.606Z,6.17
2018-05-15T06:03:49.009Z,6.10
2018-05-15T06:06:16.520Z,6.67
2018-05-15T06:08:43.916Z,5.43
2018-05-15T06:11:11.417Z,6.47
2018-05-15T06:13:38.825Z,5.73
2018-05-15T06:16:06.227Z,6.33
2018-05-15T06:18:33.642Z,6.60
2018-05-15T06:21:01.113Z,6.03
2018-05-15T06:23:28.482Z,5.63
2018-05-15T06:25:55.873Z,5.80
2018-05-15T06:28:23.281Z,6.43
2018-05-15T06:30:50.729Z,6.13
2018-05-15T06:33:18.129Z,6.63
2018-05-15T06:35:45.531Z,5.73
2018-05-15T06:38:12.931Z,5.60
2018-05-15T06:40:40.455Z,6.57
2018-05-15T06:43:07.858Z,6.00
2018-05-15T06:45:35.250Z,6.20
2018-05-15T06:48:02.713Z,5.87
2018-05-15T06:50:30.135Z,6.10
2018-05-15T06:52:57.618Z,5.50
2018-05-15T06:55:25.026Z,5.30
2018-05-15T06:57:52.429Z,5.30
2018-05-15T07:00:19.890Z,5.20
2018-05-15T07:02:47.277Z,4.47
2018-05-15T07:05:14.685Z,5.77
2018-05-15T07:07:42.119Z,5.60
2018-05-15T07:10:09.557Z,5.90
2018-05-15T07:12:37.026Z,5.20
2018-05-15T07:15:04.481Z,5.67
2018-05-15T07:17:31.869Z,5.37
2018-05-15T07:19:59.280Z,6.10
2018-05-15T07:22:26.694Z,6.50
2018-05-15T07:24:54.100Z,5.77
2018-05-15T07:27:21.505Z,5.23
2018-05-15T07:29:48.970Z,5.90
2018-05-15T07:32:16.395Z,4.83
2018-05-15T07:34:43.905Z,5.97
2018-05-15T07:37:11.367Z,5.10
2018-05-15T07:39:38.815Z,5.50
2018-05-15T07:42:06.210Z,5.23
2018-05-15T07:44:33.629Z,5.30
2018-05-15T07:47:01.042Z,4.83
2018-05-15T07:49:28.535Z,4.73
2018-05-15T07:51:55.944Z,4.83
2018-05-15T07:54:23.453Z,4.90
2018-05-15T07:56:50.926Z,4.43
2018-05-15T07:59:18.260Z,5.30
2018-05-15T08:01:45.705Z,4.10
2018-05-15T08:04:13.177Z,5.57
2018-05-15T08:06:40.618Z,4.70
2018-05-15T08:09:08.027Z,4.60
2018-05-15T08:11:35.513Z,5.17
2018-05-15T08:14:02.913Z,4.90
2018-05-15T08:16:30.401Z,5.30
2018-05-15T08:18:57.852Z,5.10
2018-05-15T08:21:25.253Z,4.40
2018-05-15T08:23:52.651Z,4.47
2018-05-15T08:26:20.032Z,5.80
2018-05-15T08:28:47.457Z,5.30
2018-05-15T08:31:14.850Z,3.87
2018-05-15T08:33:42.326Z,4.47
2018-05-15T08:36:09.745Z,4.53
2018-05-15T08:38:37.262Z,4.53
2018-05-15T08:41:04.658Z,3.83
2018-05-15T08:43:32.079Z,4.57
2018-05-15T08:45:59.525Z,4.50
2018-05-15T08:48:26.926Z,5.00
2018-05-15T08:50:54.360Z,5.23
2018-05-15T08:53:21.750Z,4.37
2018-05-15T08:55:49.177Z,3.87
2018-05-15T08:58:16.588Z,5.30
2018-05-15T09:00:43.999Z,5.13
2018-05-15T09:03:11.381Z,4.90
2018-05-15T09:05:38.786Z,4.67
2018-05-15T09:08:06.228Z,4.47
2018-05-15T09:10:33.887Z,4.80
2018-05-15T09:13:01.353Z,4.20
2018-05-15T09:15:28.750Z,4.43
2018-05-15T09:17:56.240Z,4.00
2018-05-15T09:20:23.638Z,4.83
2018-05-15T09:22:51.053Z,4.33
2018-05-15T09:25:19.494Z,4.03
2018-05-15T09:27:46.887Z,4.67
2018-05-15T09:30:14.373Z,4.43
2018-05-15T09:32:41.813Z,4.10
2018-05-15T09:35:09.215Z,3.90
2018-05-15T09:37:37.557Z,4.47
2018-05-15T09:40:04.961Z,4.30
2018-05-15T09:42:32.461Z,3.87
2018-05-15T09:44:59.923Z,4.70
2018-05-15T09:47:27.315Z,4.27
2018-05-15T09:49:54.709Z,4.37
2018-05-15T09:52:22.143Z,4.77
2018-05-15T09:54:49.521Z,4.30
2018-05-15T09:57:16.940Z,4.30
2018-05-15T09:59:44.373Z,4.57
2018-05-15T10:02:11.789Z,4.30
2018-05-15T10:04:39.280Z,4.50
2018-05-15T10:07:06.741Z,3.90
2018-05-15T10:09:34.231Z,4.70
2018-05-15T10:12:01.708Z,4.23
2018-05-15T10:14:29.125Z,3.50
2018-05-15T10:16:56.505Z,3.90
2018-05-15T10:19:23.905Z,3.70
2018-05-15T10:21:51.288Z,3.80
2018-05-15T10:24:18.781Z,4.10
2018-05-15T10:26:46.197Z,4.50
2018-05-15T10:29:13.625Z,3.70
2018-05-15T10:31:41.021Z,4.90
2018-05-15T10:34:08.409Z,3.27
2018-05-15T10:36:35.926Z,3.60
2018-05-15T10:39:03.315Z,3.73
2018-05-15T10:41:30.706Z,4.30
2018-05-15T10:43:58.152Z,4.10
2018-05-15T10:46:25.535Z,4.77
2018-05-15T10:48:52.981Z,4.70
2018-05-15T10:51:20.552Z,3.47
2018-05-15T10:53:47.952Z,3.47
2018-05-15T10:56:15.351Z,3.43
2018-05-15T10:58:42.800Z,4.20
2018-05-15T11:01:10.278Z,3.50
2018-05-15T11:03:37.717Z,3.50
2018-05-15T11:06:05.205Z,3.70
2018-05-15T11:08:32.531Z,4.10
2018-05-15T11:10:59.924Z,4.33
2018-05-15T11:13:27.333Z,3.57
2018-05-15T11:15:54.729Z,4.20
2018-05-15T11:18:47.882Z,4.60
2018-05-15T11:21:27.193Z,3.27
2018-05-15T11:27:01.358Z,3.20
2018-05-15T11:29:28.809Z,3.80
2018-05-15T11:31:56.209Z,3.70
2018-05-15T11:34:23.622Z,3.60
2018-05-15T11:36:51.013Z,4.30
2018-05-15T11:39:18.424Z,3.70
2018-05-15T11:41:45.850Z,3.10
2018-05-15T11:44:13.257Z,3.73
2018-05-15T11:46:40.700Z,4.10
2018-05-15T11:49:08.799Z,4.03
2018-05-15T11:51:36.534Z,3.80
2018-05-15T11:54:03.129Z,4.03
2018-05-15T11:56:30.547Z,3.73
2018-05-15T11:58:57.933Z,4.23
2018-05-15T12:01:25.378Z,4.10
2018-05-15T12:03:53.014Z,4.10
2018-05-15T12:06:20.306Z,3.70
2018-05-15T12:08:47.711Z,3.90
2018-05-15T12:11:15.097Z,3.77
2018-05-15T12:13:42.497Z,4.10
2018-05-15T12:16:09.940Z,4.67
2018-05-15T12:18:37.385Z,3.73
2018-05-15T12:21:04.828Z,4.10
2018-05-15T12:23:32.217Z,3.67
2018-05-15T12:25:59.637Z,3.93
2018-05-15T12:28:27.070Z,3.80
2018-05-15T12:30:54.499Z,3.93
2018-05-15T12:33:22.156Z,3.90
2018-05-15T12:35:49.649Z,3.57
2018-05-15T12:40:57.144Z,4.03
2018-05-15T12:43:24.542Z,4.33
2018-05-15T12:45:52.025Z,3.90
2018-05-15T12:48:19.449Z,5.37
2018-05-15T12:50:46.836Z,3.93
2018-05-15T12:53:14.305Z,3.60
2018-05-15T12:55:41.705Z,3.60
2018-05-15T12:58:09.095Z,4.20
2018-05-15T13:00:36.523Z,3.50
2018-05-15T13:03:03.907Z,3.53
2018-05-15T13:05:31.341Z,3.47
2018-05-15T13:07:58.757Z,3.43
2018-05-15T13:10:26.168Z,3.57
2018-05-15T13:12:53.597Z,5.83
2018-05-15T13:15:21.106Z,3.63
2018-05-15T13:17:48.498Z,3.50
2018-05-15T13:20:15.897Z,3.60
2018-05-15T13:22:43.385Z,3.40
2018-05-15T13:25:10.880Z,3.33
2018-05-15T13:27:38.313Z,2.93
2018-05-15T13:30:05.736Z,3.53
2018-05-15T13:32:33.214Z,3.33
2018-05-15T13:35:00.678Z,3.53
2018-05-15T13:37:28.069Z,3.27
2018-05-15T13:39:55.468Z,3.27
2018-05-15T13:42:22.881Z,3.37
2018-05-15T13:44:50.294Z,3.73
2018-05-15T13:47:17.764Z,4.30
2018-05-15T13:49:45.235Z,4.00
2018-05-15T13:52:12.638Z,3.70
2018-05-15T13:54:40.031Z,2.93
2018-05-15T13:57:07.448Z,3.90
2018-05-15T13:59:34.964Z,3.90
2018-05-15T14:02:02.395Z,3.83
2018-05-15T14:04:30.725Z,3.80
2018-05-15T14:06:58.226Z,3.63
2018-05-15T14:09:25.703Z,3.43
2018-05-15T14:11:53.103Z,3.53
2018-05-15T14:14:20.614Z,3.17
2018-05-15T14:16:48.010Z,3.40
2018-05-15T14:19:15.498Z,3.23
2018-05-15T14:21:42.802Z,3.43
2018-05-15T14:24:10.210Z,3.80
2018-05-15T14:26:37.633Z,4.30
2018-05-15T14:29:05.030Z,3.10
2018-05-15T14:31:32.499Z,3.43
2018-05-15T14:33:59.949Z,3.40
2018-05-15T14:36:27.409Z,3.40
2018-05-15T14:38:54.798Z,3.20
2018-05-15T14:41:34.101Z,4.47
2018-05-15T14:44:01.497Z,3.73
2018-05-15T14:46:28.899Z,3.40
2018-05-15T14:48:56.293Z,3.53
2018-05-15T14:51:30.590Z,3.50
2018-05-15T14:53:58.065Z,3.80
2018-05-15T14:56:25.500Z,3.13
2018-05-15T14:58:52.964Z,2.97
2018-05-15T15:01:20.426Z,3.70
2018-05-15T15:03:47.825Z,3.63
2018-05-15T15:06:15.232Z,3.03
2018-05-15T15:08:42.679Z,3.63
2018-05-15T15:11:10.054Z,3.10
2018-05-15T15:13:37.458Z,3.23
2018-05-15T15:16:04.850Z,3.37
2018-05-15T15:18:32.248Z,4.00
2018-05-15T15:20:59.645Z,3.30
2018-05-15T15:23:27.053Z,3.60
2018-05-15T15:25:54.550Z,4.20
2018-05-15T15:28:21.993Z,3.73
2018-05-15T15:30:49.469Z,4.37
2018-05-15T15:33:16.883Z,3.13
2018-05-15T15:35:44.286Z,3.17
2018-05-15T15:38:11.685Z,3.60
2018-05-15T15:40:39.094Z,3.40
2018-05-15T15:43:06.561Z,3.50
2018-05-15T15:45:34.929Z,3.20
2018-05-15T15:48:02.322Z,3.37
2018-05-15T15:50:29.817Z,3.00
2018-05-15T15:52:57.248Z,3.43
2018-05-15T15:55:24.645Z,3.40
2018-05-15T15:57:52.063Z,3.93
2018-05-15T16:00:19.550Z,3.83
2018-05-15T16:02:46.989Z,3.53
2018-05-15T16:05:14.377Z,4.20
2018-05-15T16:07:41.769Z,3.63
2018-05-15T16:10:09.364Z,4.07
2018-05-15T16:12:36.625Z,3.10
2018-05-15T16:15:04.026Z,3.60
2018-05-15T16:17:31.517Z,3.53
2018-05-15T16:19:58.913Z,3.70
2018-05-15T16:22:26.319Z,3.60
2018-05-15T16:24:53.723Z,3.93
2018-05-15T16:27:21.114Z,3.53
2018-05-15T16:29:48.541Z,3.33
2018-05-15T16:32:15.947Z,4.63
2018-05-15T16:34:43.397Z,3.40
2018-05-15T16:37:10.781Z,4.20
2018-05-15T16:39:38.293Z,3.83
2018-05-15T16:42:05.689Z,4.00
2018-05-15T16:44:33.637Z,3.93
2018-05-15T16:47:01.107Z,4.00
2018-05-15T16:49:28.544Z,4.57
2018-05-15T16:51:55.937Z,4.73
2018-05-15T16:54:23.466Z,6.07
2018-05-15T16:56:50.877Z,8.33
2018-05-15T16:59:18.363Z,5.80
2018-05-15T17:01:46.629Z,6.57
2018-05-15T17:04:14.025Z,5.57
2018-05-15T17:06:41.467Z,5.57
2018-05-15T17:09:08.853Z,5.27
2018-05-15T17:11:36.683Z,4.40
2018-05-15T17:14:04.109Z,3.93
2018-05-15T17:16:31.504Z,4.40
2018-05-15T17:18:58.957Z,3.80
2018-05-15T17:21:26.449Z,3.93
2018-05-15T17:23:53.905Z,3.50
2018-05-15T17:26:21.367Z,3.50
2018-05-15T17:28:48.765Z,3.77
2018-05-15T17:31:16.220Z,3.40
2018-05-15T17:33:43.566Z,3.80
2018-05-15T17:36:10.966Z,3.50
2018-05-15T17:38:38.377Z,4.50
2018-05-15T17:41:05.789Z,4.37
2018-05-15T17:43:33.197Z,3.63
2018-05-15T17:46:00.587Z,3.40
2018-05-15T17:48:28.052Z,3.20
2018-05-15T17:50:55.433Z,4.10
2018-05-15T17:53:22.842Z,3.60
2018-05-15T17:55:50.301Z,4.00
2018-05-15T17:58:17.714Z,3.80
2018-05-15T18:00:45.222Z,3.43
2018-05-15T18:03:12.621Z,3.60
2018-05-15T18:05:40.481Z,5.07
2018-05-15T18:08:07.898Z,3.73
2018-05-15T18:10:35.309Z,3.67
2018-05-15T18:13:02.826Z,3.80
2018-05-15T18:15:30.218Z,4.20
2018-05-15T18:17:57.725Z,4.10
2018-05-15T18:20:25.165Z,3.70
2018-05-15T18:22:52.661Z,3.27
2018-05-15T18:25:20.049Z,3.57
2018-05-15T18:27:47.437Z,3.43
2018-05-15T18:30:14.850Z,3.87
2018-05-15T18:32:42.281Z,4.13
2018-05-15T18:35:09.663Z,4.00
2018-05-15T18:37:37.049Z,4.33
2018-05-15T18:40:04.465Z,3.50
2018-05-15T18:42:32.015Z,3.40
2018-05-15T18:44:59.455Z,4.57
2018-05-15T18:47:26.892Z,3.20
2018-05-15T18:49:54.294Z,4.67
2018-05-15T18:52:21.762Z,4.10
2018-05-15T18:54:49.173Z,3.90
2018-05-15T18:57:16.647Z,3.57
2018-05-15T18:59:44.092Z,3.70
2018-05-15T19:02:11.483Z,3.93
2018-05-15T19:04:38.965Z,3.17
2018-05-15T19:07:06.374Z,4.40
2018-05-15T19:09:33.773Z,4.07
2018-05-15T19:12:01.157Z,3.83
2018-05-15T19:14:28.560Z,3.80
2018-05-15T19:16:56.028Z,4.50
2018-05-15T19:19:23.521Z,4.40
2018-05-15T19:21:50.847Z,3.83
2018-05-15T19:24:18.245Z,3.83
2018-05-15T19:26:45.691Z,3.50
2018-05-15T19:29:13.053Z,3.90
2018-05-15T19:31:40.449Z,4.30
2018-05-15T19:34:13.649Z,3.40
2018-05-15T19:36:46.505Z,3.60
2018-05-15T19:39:13.907Z,3.37
2018-05-15T19:41:41.361Z,3.60
2018-05-15T19:44:08.780Z,3.73
2018-05-15T19:46:36.183Z,3.63
2018-05-15T19:49:03.570Z,3.80
2018-05-15T19:51:30.974Z,3.80
2018-05-15T19:53:58.442Z,4.67
2018-05-15T19:56:25.858Z,4.30
2018-05-15T19:58:54.090Z,4.10
2018-05-15T20:01:21.529Z,3.90
2018-05-15T20:03:48.985Z,3.73
2018-05-15T20:06:16.440Z,4.13
2018-05-15T20:08:43.833Z,4.30
2018-05-15T20:11:11.257Z,4.60
2018-05-15T20:13:38.712Z,4.20
2018-05-15T20:16:06.228Z,4.10
2018-05-15T20:18:33.641Z,4.73
2018-05-15T20:21:01.077Z,4.43
2018-05-15T20:23:28.469Z,4.67
2018-05-15T20:25:55.884Z,5.50
2018-05-15T20:28:23.281Z,4.97
2018-05-15T20:30:50.684Z,5.03
2018-05-15T20:33:18.100Z,4.80
2018-05-15T20:35:45.517Z,4.67
2018-05-15T20:38:12.910Z,4.60
2018-05-15T20:40:40.313Z,4.73
2018-05-15T20:43:07.785Z,4.53
2018-05-15T20:45:35.200Z,4.70
2018-05-15T20:48:02.610Z,5.50
2018-05-15T20:50:30.033Z,4.97
2018-05-15T20:52:57.513Z,5.50
2018-05-15T20:55:24.969Z,4.97
2018-05-15T20:57:52.371Z,5.33
2018-05-15T21:00:19.777Z,5.12
2018-05-15T21:02:48.061Z,5.40
2018-05-15T21:05:15.483Z,5.50
2018-05-15T21:07:42.886Z,5.47
2018-05-15T21:10:10.325Z,5.90
2018-05-15T21:12:37.898Z,6.10
2018-05-15T21:15:05.340Z,5.77
2018-05-15T21:17:32.700Z,5.90
2018-05-15T21:20:00.111Z,5.50
2018-05-15T21:22:27.509Z,6.03
2018-05-15T21:24:55.003Z,5.97
2018-05-15T21:27:22.424Z,6.57
2018-05-15T21:29:49.838Z,6.43
2018-05-15T21:32:17.228Z,6.70
2018-05-15T21:34:44.625Z,7.17
2018-05-15T21:37:12.039Z,6.47
2018-05-15T21:39:39.444Z,6.97
2018-05-15T21:42:06.845Z,7.60
2018-05-15T21:44:34.269Z,6.97
2018-05-15T21:47:01.674Z,6.10
2018-05-15T21:49:29.133Z,6.60
2018-05-15T21:51:56.516Z,6.67
2018-05-15T21:54:23.920Z,7.00
2018-05-15T21:56:51.314Z,6.73
2018-05-15T21:59:18.707Z,7.00
2018-05-15T22:01:46.113Z,7.47
2018-05-15T22:04:13.505Z,6.87
2018-05-15T22:06:40.905Z,6.10
2018-05-15T22:09:08.302Z,7.60
2018-05-15T22:11:47.430Z,7.20
2018-05-15T22:14:26.768Z,7.50
2018-05-15T22:17:06.065Z,7.40
2018-05-15T22:19:45.429Z,6.93
2018-05-15T22:22:15.048Z,7.77
2018-05-15T22:24:42.481Z,7.30
2018-05-15T22:27:09.889Z,6.53
2018-05-15T22:29:37.278Z,7.70
2018-05-15T22:32:04.768Z,7.33
2018-05-15T22:34:32.169Z,7.70
2018-05-15T22:36:59.677Z,7.50
2018-05-15T22:39:27.073Z,7.40
2018-05-15T22:41:54.492Z,7.30
2018-05-15T22:44:21.904Z,7.17
2018-05-15T22:46:49.301Z,7.20
2018-05-15T22:49:16.702Z,7.30
2018-05-15T22:51:44.101Z,7.00
2018-05-15T22:54:11.515Z,7.37
2018-05-15T22:56:38.913Z,7.60
2018-05-15T22:59:06.313Z,8.10
2018-05-15T23:01:33.773Z,8.10
2018-05-15T23:04:01.171Z,8.27
2018-05-15T23:06:28.621Z,7.93
2018-05-15T23:08:56.043Z,7.57
2018-05-15T23:11:23.441Z,7.73
2018-05-15T23:13:50.872Z,8.90
2018-05-15T23:16:18.295Z,7.53
2018-05-15T23:18:45.698Z,8.93
2018-05-15T23:21:13.122Z,7.90
2018-05-15T23:23:40.577Z,9.60
2018-05-15T23:26:07.980Z,8.17
2018-05-15T23:28:35.469Z,8.33
2018-05-15T23:31:02.892Z,8.02
2018-05-15T23:33:30.401Z,8.83
2018-05-15T23:35:57.817Z,8.37
2018-05-15T23:38:25.213Z,9.30
2018-05-15T23:40:52.644Z,8.70
2018-05-15T23:43:20.121Z,9.90
2018-05-15T23:45:47.567Z,9.77
2018-05-15T23:48:15.014Z,9.40
2018-05-15T23:50:42.413Z,9.50
2018-05-15T23:53:09.843Z,8.47
2018-05-15T23:55:37.285Z,8.73
2018-05-15T23:58:04.741Z,8.80
